METAR stanice u blizini

 

LYBE - Beograd / Surčin, Srbija
Ažurirano: 02/04/2020 04:30
Vedro
Vedro
 Pravac vetra JJZ
Vetar: JJZ 7 km/h
Temperatura: 1°C
Osećaj hladnoće: -2°C
Tačka rose: -4°C
Vlažnost: 70%
Pritisak: 1018 hPa
Pregled: Vedro
Vidljivost: greater than 10 km
2020/04/02 02:30 LYBE 020230Z 20004KT CAVOK 01/M04 Q1018 NOSIG
LYBT - Beograd / Batajnica, Srbija
Ažurirano: 02/04/2020 04:30
Vedro
Vedro
 Pravac vetra JJI
Vetar: JJI 6 km/h
Temperatura: 0°C
Tačka rose: -4°C
Vlažnost: 75%
Pritisak: 1018 hPa
Pregled: Vedro
Vidljivost: greater than 10 km
2020/04/02 02:30 LYBT 020230Z 15003KT CAVOK M00/M04 Q1018 NOSIG
LYVR - Vršac, Srbija
Ažurirano: 02/04/2020 04:30
Vedro
Vedro
 Pravac vetra SSI
Vetar: SSI 9 km/h
Temperatura: 2°C
Osećaj hladnoće: -1°C
Tačka rose: -1°C
Vlažnost: 81%
Pritisak: 1019 hPa
Pregled: Vedro
Vidljivost: greater than 10 km
2020/04/02 02:30 LYVR 020230Z AUTO 02005KT CAVOK 02/M01 Q1019
 
LYKV - Lađevci, Srbija
Ažurirano: 02/04/2020 04:30
Mostly Cloudy
Mostly Cloudy
 Pravac vetra calm
Vetar: Tišina
Temperatura: 0°C
Tačka rose: 0°C
Vlažnost: 100%
Pritisak: 1018 hPa
Oblaci: Mostly Cloudy
Vidljivost: 8 km
Cloud details: Mostly Cloudy 1006 m
2020/04/02 02:30 LYKV 020230Z 00000KT 8000 BKN033 00/00 Q1018 NOSIG
LYNI - Niš, Srbija
Ažurirano: 02/04/2020 04:30
Light snow, Delimično oblačno
Light snow, Delimično oblačno
 Pravac vetra SSZ
Vetar: SSZ 17 km/h
Temperatura: 0°C
Osećaj hladnoće: -4°C
Tačka rose: -2°C
Vlažnost: 87%
Pritisak: 1017 hPa
Pregled: Light Snow
Oblaci: Partly Cloudy
Vidljivost: 10 km
Cloud details: Few Clouds 610 m
Partly Cloudy 1006 m
2020/04/02 02:30 LYNI 020230Z 33009KT 9999 -SN FEW020 SCT033 00/M02 Q1017 NOSIG
BKPR - Priština, Srbija
Ažurirano: 02/04/2020 04:00
Mostly Cloudy
Mostly Cloudy
 Pravac vetra S
Vetar: S 7 km/h
Temperatura: -2°C
Osećaj hladnoće: -6°C
Tačka rose: -5°C
Vlažnost: 80%
Pritisak: 1014 hPa
Oblaci: Mostly Cloudy
Vidljivost: 10 km
Cloud details: Partly Cloudy 914 m
Mostly Cloudy 1524 m
2020/04/02 02:00 BKPR 020200Z 36004KT 9999 SCT030 BKN050 M02/M05 Q1014 NOSIG RMK 17690395
 
LHPP - Pecs / Pogany, Hungary
Ažurirano: 01/04/2020 19:45
NOT Current
Vedro
Vedro
 Pravac vetra ISI
Vetar: ISI 4 km/h
Temperatura: 4°C
Tačka rose: -13°C
Vlažnost: 28%
Pritisak: 1018 hPa
Pregled: Vedro
Vidljivost: greater than 10 km
2020/04/01 17:45 LHPP 011745Z 06002KT CAVOK 04/M13 Q1018
LHUD - Szeged, Hungary
Ažurirano: 04/07/2019 01:45
NOT Current
Vedro
Vedro
 Pravac vetra S
Vetar: S 7 km/h
Temperatura: 18°C
Tačka rose: 13°C
Vlažnost: 73%
Pritisak: 1019 hPa
Pregled: Vedro
Vidljivost: greater than 10 km
2019/07/03 23:45 LHUD 032345Z 35004KT CAVOK 18/13 Q1019
LRTR - Timisoara, Romania
Ažurirano: 02/04/2020 04:30
Vedro
Vedro
 Pravac vetra SI
Vetar: SI 9 km/h
Temperatura: -2°C
Osećaj hladnoće: -6°C
Tačka rose: -4°C
Vlažnost: 86%
Pritisak: 1018 hPa
Pregled: Vedro
Vidljivost: greater than 10 km
2020/04/02 02:30 LRTR 020230Z 05005KT CAVOK M02/M04 Q1018
 
LRCV - Craiova, Romania
Ažurirano: 02/04/2020 04:30
Vedro
Vedro
 Pravac vetra SI
Vetar: SI 9 km/h
Temperatura: 1°C
Osećaj hladnoće: -2°C
Tačka rose: -1°C
Vlažnost: 87%
Pritisak: 1017 hPa
Pregled: Vedro
Vidljivost: greater than 10 km
2020/04/02 02:30 LRCV 020230Z 04005KT CAVOK 01/M01 Q1017 R27/29//95
LBSF - Sofia, Bulgaria
Ažurirano: 02/04/2020 04:30
Light snow, Oblačno
Light snow, Oblačno
 Pravac vetra J
Vetar: J 7 km/h
Temperatura: -1°C
Osećaj hladnoće: -4°C
Tačka rose: -2°C
Vlažnost: 93%
Pritisak: 1014 hPa
Pregled: Light Snow
Oblaci: Oblačno
Vidljivost: 5 km
Cloud details: Few Clouds 213 m
Partly Cloudy 732 m
Oblačno 945 m
2020/04/02 02:30 LBSF 020230Z 17004KT 5000 -SN FEW007 SCT024 OVC031 M01/M02 Q1014 R99/29//95 NOSIG
LWSK - Skoplje, Makedonija
Ažurirano: 02/04/2020 04:30
Oblačno
Oblačno
 Pravac vetra ZSZ
Vetar: ZSZ 6 km/h
Temperatura: 0°C
Tačka rose: -1°C
Vlažnost: 93%
Pritisak: 1015 hPa
Oblaci: Oblačno
Vidljivost: 10 km
Cloud details: Few Clouds 914 m
Oblačno 1402 m
2020/04/02 02:30 LWSK 020230Z 30003KT 9999 FEW030 OVC046 M00/M01 Q1015 NOSIG
 
LYPG - Podgorica, Crna Gora
Ažurirano: 02/04/2020 04:30
Partly Cloudy
Partly Cloudy
 Pravac vetra SSI
Vetar: SSI 15 km/h
Temperatura: 3°C
Osećaj hladnoće: -1°C
Tačka rose: -6°C
Vlažnost: 52%
Pritisak: 1015 hPa
Oblaci: Partly Cloudy
Vidljivost: 10 km
Cloud details: Partly Cloudy 1219 m
2020/04/02 02:30 LYPG 020230Z 02008KT 9999 SCT040 03/M06 Q1015 NOSIG
LQSA - Sarajevo, Bosna i Hercegovina
Ažurirano: 01/04/2020 16:30
NOT Current
Mostly Cloudy
Mostly Cloudy
 Pravac vetra varies
Vetar: varies 4 km/h
Temperatura: 2°C
Tačka rose: -4°C
Vlažnost: 65%
Pritisak: 1017 hPa
Oblaci: Mostly Cloudy
Vidljivost: 10 km
Cloud details: Mostly Cloudy 1067 m
2020/04/01 14:30 LQSA 011430Z VRB02KT 9999 BKN035 02/M04 Q1017 NOSIG
LDOS - Osijek, Hrvatksa
Ažurirano: 02/04/2020 04:30
Vedro
Vedro
 Pravac vetra JI
Vetar: JI 6 km/h
Temperatura: -3°C
Tačka rose: -6°C
Vlažnost: 80%
Pritisak: 1018 hPa
Pregled: Vedro
Vidljivost: greater than 10 km
2020/04/02 02:30 LDOS 020230Z 13003KT CAVOK M03/M06 Q1018